createdAt,value
2022-08-25T00:02:13.882Z,3.37
2022-08-25T00:04:41.247Z,4.33
2022-08-25T00:07:09.615Z,3.97
2022-08-25T00:09:36.481Z,4.03
2022-08-25T00:12:05.539Z,3.97
2022-08-25T00:14:35.625Z,3.87
2022-08-25T00:17:04.648Z,3.50
2022-08-25T00:19:34.075Z,3.80
2022-08-25T00:22:01.030Z,3.33
2022-08-25T00:24:27.907Z,3.70
2022-08-25T00:26:56.758Z,3.93
2022-08-25T00:29:28.365Z,4.20
2022-08-25T00:31:55.774Z,4.27
2022-08-25T00:34:28.452Z,4.37
2022-08-25T00:36:55.191Z,4.40
2022-08-25T00:39:22.966Z,3.30
2022-08-25T00:41:51.262Z,3.57
2022-08-25T00:44:18.952Z,3.50
2022-08-25T00:46:51.153Z,4.03
2022-08-25T00:49:25.296Z,3.67
2022-08-25T00:52:08.879Z,3.40
2022-08-25T00:54:52.486Z,3.30
2022-08-25T00:57:28.958Z,3.53
2022-08-25T01:00:01.801Z,3.47
2022-08-25T01:02:28.529Z,3.83
2022-08-25T01:04:55.148Z,3.13
2022-08-25T01:07:24.018Z,3.67
2022-08-25T01:09:52.247Z,3.93
2022-08-25T01:12:19.001Z,3.10
2022-08-25T01:14:46.671Z,3.30
2022-08-25T01:17:14.236Z,3.33
2022-08-25T01:19:40.827Z,4.07
2022-08-25T01:22:07.729Z,3.63
2022-08-25T01:24:59.240Z,3.60
2022-08-25T01:27:25.847Z,3.80
2022-08-25T01:29:52.693Z,3.67
2022-08-25T01:32:19.553Z,4.00
2022-08-25T01:34:46.349Z,4.10
2022-08-25T01:37:14.948Z,4.20
2022-08-25T01:39:41.749Z,4.57
2022-08-25T01:42:10.141Z,3.87
2022-08-25T01:44:39.369Z,4.00
2022-08-25T01:47:06.704Z,3.47
2022-08-25T01:49:33.488Z,3.97
2022-08-25T01:52:07.159Z,3.60
2022-08-25T01:54:33.732Z,4.20
2022-08-25T01:57:00.320Z,4.07
2022-08-25T01:59:27.407Z,4.30
2022-08-25T02:01:59.734Z,3.63
2022-08-25T02:04:29.545Z,4.00
2022-08-25T02:06:56.179Z,3.87
2022-08-25T02:09:22.977Z,4.00
2022-08-25T02:11:49.588Z,3.67
2022-08-25T02:14:18.118Z,3.93
2022-08-25T02:16:48.397Z,3.40
2022-08-25T02:19:15.633Z,3.60
2022-08-25T02:21:42.339Z,3.43
2022-08-25T02:24:09.440Z,3.90
2022-08-25T02:26:36.481Z,4.47
2022-08-25T02:29:03.953Z,4.13
2022-08-25T02:31:30.817Z,4.03
2022-08-25T02:33:57.474Z,3.30
2022-08-25T02:36:24.452Z,3.77
2022-08-25T02:38:51.580Z,3.40
2022-08-25T02:41:21.017Z,3.10
2022-08-25T02:43:48.757Z,3.37
2022-08-25T02:46:17.201Z,3.27
2022-08-25T02:48:46.749Z,3.27
2022-08-25T02:51:13.821Z,3.60
2022-08-25T02:53:42.863Z,3.77
2022-08-25T02:56:11.034Z,3.10
2022-08-25T02:58:42.876Z,3.30
2022-08-25T03:01:12.056Z,3.40
2022-08-25T03:03:43.009Z,3.13
2022-08-25T03:06:12.718Z,3.20
2022-08-25T03:08:42.519Z,3.20
2022-08-25T03:11:09.919Z,3.17
2022-08-25T03:13:37.072Z,3.20
2022-08-25T03:16:05.527Z,3.60
2022-08-25T03:18:39.108Z,3.70
2022-08-25T03:21:05.767Z,3.73
2022-08-25T03:23:32.828Z,4.13
2022-08-25T03:26:18.172Z,4.00
2022-08-25T03:28:44.685Z,4.07
2022-08-25T03:31:11.346Z,4.27
2022-08-25T03:33:38.487Z,4.30
2022-08-25T03:36:06.072Z,4.23
2022-08-25T03:38:32.687Z,4.70
2022-08-25T03:40:59.337Z,5.37
2022-08-25T03:43:25.855Z,5.70
2022-08-25T03:45:52.447Z,5.37
2022-08-25T03:48:19.609Z,4.73
2022-08-25T03:50:51.653Z,4.77
2022-08-25T03:53:19.938Z,4.53
2022-08-25T03:55:46.949Z,3.83
2022-08-25T03:58:13.442Z,4.77
2022-08-25T04:00:41.084Z,4.20
2022-08-25T04:03:07.726Z,3.93
2022-08-25T04:05:35.434Z,3.00
2022-08-25T04:08:02.334Z,3.10
2022-08-25T04:10:31.174Z,2.97
2022-08-25T04:12:58.311Z,3.17
2022-08-25T04:15:28.108Z,2.90
2022-08-25T04:17:58.805Z,3.33
2022-08-25T04:20:25.621Z,3.50
2022-08-25T04:22:52.195Z,3.63
2022-08-25T04:25:19.011Z,3.10
2022-08-25T04:27:45.506Z,3.60
2022-08-25T04:30:12.708Z,3.30
2022-08-25T04:32:39.292Z,3.00
2022-08-25T04:35:09.298Z,3.10
2022-08-25T04:37:35.898Z,3.30
2022-08-25T04:40:02.781Z,3.10
2022-08-25T04:42:29.421Z,3.27
2022-08-25T04:44:56.045Z,3.30
2022-08-25T04:47:23.076Z,3.40
2022-08-25T04:49:49.765Z,3.20
2022-08-25T04:52:16.482Z,3.10
2022-08-25T04:54:43.819Z,2.77
2022-08-25T04:57:10.544Z,2.97
2022-08-25T04:59:37.293Z,3.13
2022-08-25T05:02:05.617Z,2.93
2022-08-25T05:04:35.477Z,3.10
2022-08-25T05:07:02.658Z,3.10
2022-08-25T05:09:29.271Z,3.17
2022-08-25T05:12:00.165Z,3.90
2022-08-25T05:14:26.883Z,3.80
2022-08-25T05:16:54.753Z,3.83
2022-08-25T05:19:21.514Z,3.90
2022-08-25T05:21:48.146Z,3.60
2022-08-25T05:24:14.759Z,3.87
2022-08-25T05:26:41.881Z,4.10
2022-08-25T05:29:10.928Z,3.77
2022-08-25T05:31:42.262Z,3.47
2022-08-25T05:34:09.908Z,3.30
2022-08-25T05:36:36.566Z,3.40
2022-08-25T05:39:04.179Z,3.20
2022-08-25T05:41:31.165Z,3.50
2022-08-25T05:43:58.021Z,3.40
2022-08-25T05:46:25.556Z,3.67
2022-08-25T05:48:53.540Z,3.97
2022-08-25T05:51:20.204Z,3.50
2022-08-25T05:53:49.091Z,3.10
2022-08-25T05:56:16.042Z,3.33
2022-08-25T05:58:43.416Z,3.43
2022-08-25T06:01:29.611Z,3.90
2022-08-25T06:03:56.202Z,3.60
2022-08-25T06:06:24.291Z,3.60
2022-08-25T06:08:51.762Z,3.30
2022-08-25T06:11:18.560Z,3.60
2022-08-25T06:13:45.632Z,3.73
2022-08-25T06:16:12.219Z,3.37
2022-08-25T06:18:38.880Z,3.43
2022-08-25T06:21:13.168Z,3.77
2022-08-25T06:23:40.273Z,3.57
2022-08-25T06:26:07.586Z,3.73
2022-08-25T06:28:34.153Z,3.90
2022-08-25T06:31:01.932Z,3.87
2022-08-25T06:33:28.888Z,3.70
2022-08-25T06:35:56.381Z,4.07
2022-08-25T06:38:23.652Z,3.63
2022-08-25T06:40:51.949Z,3.57
2022-08-25T06:43:20.044Z,3.67
2022-08-25T06:45:46.870Z,3.57
2022-08-25T06:48:13.408Z,3.80
2022-08-25T06:50:40.501Z,3.53
2022-08-25T06:53:07.636Z,3.67
2022-08-25T06:55:35.385Z,3.90
2022-08-25T06:58:03.476Z,3.63
2022-08-25T07:00:32.169Z,3.67
2022-08-25T07:03:01.053Z,3.60
2022-08-25T07:05:42.684Z,3.00
2022-08-25T07:08:11.893Z,4.43
2022-08-25T07:10:38.860Z,5.03
2022-08-25T07:13:05.357Z,4.70
2022-08-25T07:15:31.911Z,4.20
2022-08-25T07:17:58.582Z,3.87
2022-08-25T07:22:57.921Z,3.70
2022-08-25T07:25:24.521Z,3.90
2022-08-25T07:27:51.854Z,3.73
2022-08-25T07:30:20.672Z,3.90
2022-08-25T07:32:47.299Z,3.57
2022-08-25T07:35:26.118Z,4.00
2022-08-25T07:37:57.079Z,3.97
2022-08-25T07:40:34.338Z,3.80
2022-08-25T07:43:04.838Z,3.77
2022-08-25T07:45:36.430Z,4.32
2022-08-25T07:48:13.938Z,3.87
2022-08-25T07:50:47.835Z,4.00
2022-08-25T07:53:15.829Z,4.00
2022-08-25T07:55:44.966Z,4.38
2022-08-25T07:58:12.383Z,4.17
2022-08-25T08:00:39.601Z,3.90
2022-08-25T08:03:12.974Z,4.30
2022-08-25T08:05:46.815Z,4.20
2022-08-25T08:08:16.567Z,4.40
2022-08-25T08:11:03.301Z,4.75
2022-08-25T08:13:35.775Z,4.35
2022-08-25T08:16:09.803Z,4.30
2022-08-25T08:18:36.724Z,4.13
2022-08-25T08:21:03.725Z,4.63
2022-08-25T08:23:30.664Z,4.18
2022-08-25T08:25:57.164Z,4.40
2022-08-25T08:28:27.818Z,4.07
2022-08-25T08:30:54.601Z,4.47
2022-08-25T08:33:23.135Z,4.35
2022-08-25T08:36:05.270Z,4.32
2022-08-25T08:38:32.358Z,4.43
2022-08-25T08:41:48.950Z,4.10
2022-08-25T08:44:40.995Z,4.40
2022-08-25T08:47:26.387Z,4.20
2022-08-25T08:50:01.406Z,4.03
2022-08-25T08:52:54.858Z,4.13
2022-08-25T08:55:36.788Z,4.43
2022-08-25T08:58:07.771Z,4.45
2022-08-25T09:00:40.639Z,4.28
2022-08-25T09:03:11.119Z,4.10
2022-08-25T09:05:46.864Z,4.13
2022-08-25T09:08:15.116Z,4.03
2022-08-25T09:10:54.214Z,4.35
2022-08-25T09:13:29.623Z,4.35
2022-08-25T09:16:51.867Z,4.05
2022-08-25T09:19:41.937Z,4.10
2022-08-25T09:22:35.975Z,4.47
2022-08-25T09:25:21.932Z,4.13
2022-08-25T09:28:13.703Z,4.25
2022-08-25T09:31:00.470Z,3.80
2022-08-25T09:33:29.253Z,4.00
2022-08-25T09:35:57.281Z,4.00
2022-08-25T09:41:19.476Z,4.45
2022-08-25T09:43:53.709Z,4.13
2022-08-25T09:46:29.291Z,5.00
2022-08-25T09:48:57.880Z,4.55
2022-08-25T09:51:42.228Z,5.00
2022-08-25T09:54:12.656Z,6.50
2022-08-25T09:56:57.555Z,10.07
2022-08-25T09:59:34.090Z,4.90
2022-08-25T10:02:24.047Z,4.25
2022-08-25T10:04:51.279Z,5.22
2022-08-25T10:07:40.094Z,4.55
2022-08-25T10:10:19.116Z,4.75
2022-08-25T10:12:51.125Z,4.38
2022-08-25T10:15:33.048Z,4.70
2022-08-25T10:18:28.736Z,5.07
2022-08-25T10:21:10.457Z,10.02
2022-08-25T10:23:41.827Z,5.32
2022-08-25T10:26:22.739Z,4.80
2022-08-25T10:29:07.365Z,4.88
2022-08-25T10:31:41.348Z,5.15
2022-08-25T10:34:11.691Z,4.35
2022-08-25T10:37:02.254Z,4.85
2022-08-25T10:39:36.466Z,4.90
2022-08-25T10:42:29.484Z,4.30
2022-08-25T10:45:30.977Z,4.70
2022-08-25T10:48:22.871Z,5.43
2022-08-25T10:50:55.148Z,4.72
2022-08-25T10:53:27.412Z,4.35
2022-08-25T10:56:08.477Z,4.50
2022-08-25T10:58:41.099Z,4.65
2022-08-25T11:01:28.856Z,4.10
2022-08-25T11:04:36.522Z,4.30
2022-08-25T11:07:11.840Z,4.03
2022-08-25T11:09:41.654Z,4.38
2022-08-25T11:12:13.894Z,3.85
2022-08-25T11:14:46.997Z,4.40
2022-08-25T11:17:40.298Z,3.70
2022-08-25T11:20:19.451Z,3.78
2022-08-25T11:23:17.070Z,3.97
2022-08-25T11:25:52.203Z,5.95
2022-08-25T11:28:31.204Z,4.68
2022-08-25T11:30:59.896Z,4.40
2022-08-25T11:33:29.798Z,4.47
2022-08-25T11:36:11.444Z,4.38
2022-08-25T11:39:04.888Z,4.30
2022-08-25T11:41:50.145Z,4.63
2022-08-25T11:44:27.954Z,4.40
2022-08-25T11:47:00.583Z,4.45
2022-08-25T11:49:43.919Z,4.57
2022-08-25T11:52:34.711Z,4.28
2022-08-25T11:55:23.385Z,4.45
2022-08-25T11:57:53.683Z,4.22
2022-08-25T12:00:20.541Z,4.13
2022-08-25T12:02:51.322Z,4.57
2022-08-25T12:05:22.012Z,3.83
2022-08-25T12:08:14.715Z,4.00
2022-08-25T12:11:11.250Z,3.50
2022-08-25T12:13:50.827Z,4.00
2022-08-25T12:16:41.105Z,3.67
2022-08-25T12:19:24.073Z,4.20
2022-08-25T12:21:51.971Z,4.10
2022-08-25T12:24:41.713Z,4.13
2022-08-25T12:27:33.809Z,3.80
2022-08-25T12:30:05.159Z,6.07
2022-08-25T12:32:41.127Z,4.70
2022-08-25T12:35:27.156Z,4.60
2022-08-25T12:38:01.571Z,4.50
2022-08-25T12:40:35.162Z,5.80
2022-08-25T12:43:26.694Z,4.20
2022-08-25T12:45:57.559Z,3.75
2022-08-25T12:48:27.166Z,5.75
2022-08-25T12:51:20.553Z,3.22
2022-08-25T12:53:51.059Z,3.00
2022-08-25T12:56:35.132Z,3.45
2022-08-25T12:59:32.950Z,3.40
2022-08-25T13:02:14.851Z,3.78
2022-08-25T13:04:48.412Z,3.35
2022-08-25T13:07:31.505Z,3.20
2022-08-25T13:10:07.723Z,3.45
2022-08-25T13:12:54.260Z,3.50
2022-08-25T13:15:44.582Z,3.33
2022-08-25T13:18:19.741Z,3.33
2022-08-25T13:20:48.827Z,3.85
2022-08-25T13:23:18.554Z,3.30
2022-08-25T13:25:50.643Z,3.58
2022-08-25T13:28:24.985Z,3.17
2022-08-25T13:31:01.995Z,3.13
2022-08-25T13:33:28.590Z,3.30
2022-08-25T13:36:16.591Z,3.20
2022-08-25T13:38:45.771Z,3.45
2022-08-25T13:41:19.251Z,3.47
2022-08-25T13:43:45.801Z,3.28
2022-08-25T13:46:12.437Z,3.17
2022-08-25T13:48:49.353Z,3.15
2022-08-25T13:51:31.207Z,3.22
2022-08-25T13:54:01.401Z,3.47
2022-08-25T13:56:40.006Z,3.10
2022-08-25T13:59:22.038Z,3.60
2022-08-25T14:01:50.123Z,4.03
2022-08-25T14:04:22.166Z,3.25
2022-08-25T14:06:49.101Z,3.50
2022-08-25T14:09:18.312Z,3.33
2022-08-25T14:11:58.653Z,3.03
2022-08-25T14:14:25.152Z,3.53
2022-08-25T14:17:00.786Z,2.72
2022-08-25T14:19:30.460Z,3.40
2022-08-25T14:21:59.981Z,3.40
2022-08-25T14:24:27.132Z,3.88
2022-08-25T14:26:54.904Z,3.35
2022-08-25T14:29:22.263Z,3.38
2022-08-25T14:31:49.391Z,3.00
2022-08-25T14:34:19.067Z,3.15
2022-08-25T14:36:48.385Z,3.72
2022-08-25T14:39:15.424Z,3.30
2022-08-25T14:41:47.483Z,3.25
2022-08-25T14:44:20.266Z,3.90
2022-08-25T14:46:52.210Z,3.38
2022-08-25T14:49:29.708Z,3.72
2022-08-25T14:51:57.912Z,3.75
2022-08-25T14:54:26.929Z,3.30
2022-08-25T14:56:54.137Z,3.45
2022-08-25T14:59:20.719Z,3.38
2022-08-25T15:01:47.544Z,3.20
2022-08-25T15:04:22.518Z,3.38
2022-08-25T15:06:51.840Z,3.50
2022-08-25T15:09:18.882Z,3.10
2022-08-25T15:11:50.718Z,3.22
2022-08-25T15:14:19.146Z,3.38
2022-08-25T15:16:56.861Z,3.80
2022-08-25T15:19:25.612Z,3.38
2022-08-25T15:21:52.472Z,3.33
2022-08-25T15:24:20.079Z,3.65
2022-08-25T15:29:23.495Z,3.50
2022-08-25T15:31:50.422Z,3.80
2022-08-25T15:34:17.420Z,3.40
2022-08-25T15:36:45.702Z,3.67
2022-08-25T15:39:14.502Z,3.45
2022-08-25T15:41:42.751Z,3.35
2022-08-25T15:44:11.493Z,3.17
2022-08-25T15:46:40.513Z,3.25
2022-08-25T15:49:07.955Z,3.60
2022-08-25T15:51:34.682Z,3.58
2022-08-25T15:54:01.386Z,3.50
2022-08-25T15:56:27.889Z,3.92
2022-08-25T15:58:55.496Z,3.70
2022-08-25T16:01:25.081Z,3.70
2022-08-25T16:03:52.255Z,3.40
2022-08-25T16:06:19.081Z,3.42
2022-08-25T16:08:45.957Z,3.83
2022-08-25T16:11:20.987Z,4.00
2022-08-25T16:13:48.303Z,3.90
2022-08-25T16:16:16.529Z,3.65
2022-08-25T16:18:44.163Z,4.18
2022-08-25T16:21:12.459Z,4.10
2022-08-25T16:23:40.137Z,3.90
2022-08-25T16:26:08.944Z,3.70
2022-08-25T16:28:37.648Z,3.47
2022-08-25T16:31:04.615Z,3.83
2022-08-25T16:33:32.211Z,3.45
2022-08-25T16:36:17.034Z,3.60
2022-08-25T16:38:48.950Z,3.70
2022-08-25T16:41:22.599Z,4.38
2022-08-25T16:43:50.575Z,4.18
2022-08-25T16:46:18.829Z,3.65
2022-08-25T16:48:45.469Z,3.80
2022-08-25T16:51:15.144Z,4.05
2022-08-25T16:54:01.472Z,3.60
2022-08-25T16:56:28.902Z,3.83
2022-08-25T16:58:57.982Z,4.20
2022-08-25T17:01:25.966Z,4.30
2022-08-25T17:03:55.846Z,3.63
2022-08-25T17:06:24.444Z,3.90
2022-08-25T17:08:51.616Z,3.90
2022-08-25T17:11:23.286Z,3.67
2022-08-25T17:13:53.457Z,3.60
2022-08-25T17:16:26.306Z,4.00
2022-08-25T17:18:52.898Z,3.92
2022-08-25T17:21:24.389Z,3.80
2022-08-25T17:23:52.627Z,4.00
2022-08-25T17:26:19.862Z,3.63
2022-08-25T17:28:54.941Z,3.92
2022-08-25T17:31:23.037Z,3.47
2022-08-25T17:33:52.278Z,3.83
2022-08-25T17:36:19.700Z,3.65
2022-08-25T17:38:53.553Z,4.50
2022-08-25T17:41:20.871Z,3.60
2022-08-25T17:43:47.469Z,4.35
2022-08-25T17:46:15.238Z,3.80
2022-08-25T17:48:43.740Z,3.75
2022-08-25T17:51:11.175Z,4.30
2022-08-25T17:53:38.592Z,4.30
2022-08-25T17:56:08.853Z,3.80
2022-08-25T17:58:35.684Z,3.80
2022-08-25T18:01:03.090Z,4.10
2022-08-25T18:03:30.186Z,4.38
2022-08-25T18:05:56.982Z,3.95
2022-08-25T18:08:32.194Z,3.50
2022-08-25T18:11:02.014Z,3.97
2022-08-25T18:13:29.418Z,3.80
2022-08-25T18:15:55.989Z,4.10
2022-08-25T18:18:24.220Z,3.83
2022-08-25T18:20:51.188Z,4.03
2022-08-25T18:23:19.748Z,5.40
2022-08-25T18:25:48.210Z,3.90
2022-08-25T18:28:14.840Z,3.60
2022-08-25T18:30:42.122Z,3.72
2022-08-25T18:33:08.908Z,3.55
2022-08-25T18:35:36.122Z,4.05
2022-08-25T18:38:23.837Z,4.18
2022-08-25T18:41:00.862Z,3.78
2022-08-25T18:43:31.944Z,3.65
2022-08-25T18:46:01.513Z,3.95
2022-08-25T18:48:28.350Z,3.90
2022-08-25T18:50:56.615Z,4.25
2022-08-25T18:53:30.621Z,6.25
2022-08-25T18:56:05.266Z,5.18
2022-08-25T18:58:32.192Z,4.40
2022-08-25T19:01:00.881Z,4.00
2022-08-25T19:03:27.772Z,4.60
2022-08-25T19:05:57.812Z,4.07
2022-08-25T19:08:24.926Z,4.38
2022-08-25T19:10:53.365Z,3.95
2022-08-25T19:13:22.430Z,3.88
2022-08-25T19:15:50.374Z,4.57
2022-08-25T19:18:18.389Z,4.07
2022-08-25T19:20:45.060Z,3.88
2022-08-25T19:23:12.869Z,4.18
2022-08-25T19:25:41.624Z,4.20
2022-08-25T19:28:12.003Z,4.10
2022-08-25T19:30:39.269Z,4.03
2022-08-25T19:33:16.671Z,4.15
2022-08-25T19:36:04.230Z,3.92
2022-08-25T19:38:34.182Z,4.30
2022-08-25T19:41:02.594Z,4.07
2022-08-25T19:43:37.180Z,4.20
2022-08-25T19:46:06.455Z,4.35
2022-08-25T19:48:33.521Z,3.75
2022-08-25T19:51:01.768Z,4.47
2022-08-25T19:53:28.287Z,3.83
2022-08-25T19:55:55.792Z,3.83
2022-08-25T19:58:23.342Z,4.18
2022-08-25T20:00:51.334Z,5.07
2022-08-25T20:03:20.525Z,4.07
2022-08-25T20:05:48.355Z,4.20
2022-08-25T20:08:15.593Z,4.32
2022-08-25T20:10:42.610Z,4.28
2022-08-25T20:13:09.667Z,3.83
2022-08-25T20:15:37.982Z,3.95
2022-08-25T20:18:06.174Z,5.13
2022-08-25T20:20:34.611Z,4.50
2022-08-25T20:23:20.998Z,4.60
2022-08-25T20:25:50.136Z,4.90
2022-08-25T20:28:18.948Z,5.30
2022-08-25T20:30:46.196Z,5.07
2022-08-25T20:33:13.262Z,5.53
2022-08-25T20:35:48.093Z,4.45
2022-08-25T20:38:14.650Z,4.72
2022-08-25T20:40:42.151Z,5.20
2022-08-25T20:43:10.507Z,4.72
2022-08-25T20:45:39.379Z,5.50
2022-08-25T20:48:06.080Z,5.63
2022-08-25T20:50:33.696Z,5.55
2022-08-25T20:53:00.904Z,4.70
2022-08-25T20:55:27.868Z,5.53
2022-08-25T20:57:55.141Z,5.63
2022-08-25T21:00:24.923Z,5.07
2022-08-25T21:02:52.701Z,5.63
2022-08-25T21:05:19.642Z,6.05
2022-08-25T21:07:46.396Z,5.25
2022-08-25T21:10:15.950Z,6.35
2022-08-25T21:12:43.007Z,5.75
2022-08-25T21:15:10.522Z,5.45
2022-08-25T21:17:37.036Z,5.65
2022-08-25T21:20:06.380Z,5.80
2022-08-25T21:22:35.004Z,6.97
2022-08-25T21:25:01.826Z,5.97
2022-08-25T21:27:29.754Z,7.07
2022-08-25T21:29:56.791Z,5.78
2022-08-25T21:32:24.415Z,6.35
2022-08-25T21:34:55.299Z,7.55
2022-08-25T21:37:23.386Z,5.78
2022-08-25T21:39:50.177Z,7.75
2022-08-25T21:42:16.922Z,7.60
2022-08-25T21:44:43.487Z,7.35
2022-08-25T21:47:10.232Z,5.90
2022-08-25T21:49:37.327Z,7.72
2022-08-25T21:52:04.615Z,5.72
2022-08-25T21:54:31.565Z,5.30
2022-08-25T21:57:04.096Z,6.38
2022-08-25T21:59:36.906Z,6.38
2022-08-25T22:02:08.896Z,6.35
2022-08-25T22:04:36.720Z,6.55
2022-08-25T22:07:03.260Z,5.43
2022-08-25T22:09:30.373Z,6.60
2022-08-25T22:11:58.682Z,6.15
2022-08-25T22:14:26.553Z,5.57
2022-08-25T22:16:53.898Z,6.05
2022-08-25T22:19:21.491Z,5.90
2022-08-25T22:21:50.266Z,6.43
2022-08-25T22:24:17.968Z,5.50
2022-08-25T22:26:47.381Z,6.38
2022-08-25T22:29:23.627Z,6.35
2022-08-25T22:31:53.039Z,6.05
2022-08-25T22:34:20.095Z,6.10
2022-08-25T22:36:58.925Z,5.35
2022-08-25T22:39:26.447Z,6.15
2022-08-25T22:41:53.041Z,4.93
2022-08-25T22:44:19.543Z,5.63
2022-08-25T22:46:46.076Z,5.88
2022-08-25T22:49:12.846Z,5.70
2022-08-25T22:51:39.500Z,6.20
2022-08-25T22:54:06.178Z,5.87
2022-08-25T22:56:37.758Z,5.90
2022-08-25T22:59:08.717Z,5.37
2022-08-25T23:01:35.933Z,6.20
2022-08-25T23:04:05.480Z,6.32
2022-08-25T23:06:34.511Z,5.67
2022-08-25T23:09:01.790Z,5.63
2022-08-25T23:11:28.900Z,6.27
2022-08-25T23:13:58.251Z,5.77
2022-08-25T23:16:28.235Z,5.93
2022-08-25T23:18:54.911Z,6.47
2022-08-25T23:21:40.973Z,5.47
2022-08-25T23:24:13.434Z,6.13
2022-08-25T23:26:42.558Z,5.40
2022-08-25T23:29:17.739Z,5.97
2022-08-25T23:31:48.002Z,6.43
2022-08-25T23:34:16.175Z,5.70
2022-08-25T23:36:43.272Z,5.63
2022-08-25T23:39:11.126Z,5.63
2022-08-25T23:41:37.839Z,5.80
2022-08-25T23:44:09.378Z,5.87
2022-08-25T23:46:38.493Z,6.10
2022-08-25T23:49:08.149Z,6.67
2022-08-25T23:51:38.242Z,5.90
2022-08-25T23:54:09.562Z,6.03
2022-08-25T23:56:42.343Z,6.00
2022-08-25T23:59:12.994Z,5.33
